sensor_id;sensor_type;location;lat;lon;timestamp;pressure;altitude;pressure_sealevel;temperature;humidity
79129;BME280;68529;43.286;23.360;2023-11-19T00:02:07;99328.78;;;8.12;50.07
79129;BME280;68529;43.286;23.360;2023-11-19T00:04:36;99326.16;;;8.12;49.97
79129;BME280;68529;43.286;23.360;2023-11-19T00:07:02;99318.25;;;8.15;50.10
79129;BME280;68529;43.286;23.360;2023-11-19T00:09:30;99326.00;;;8.18;49.62
79129;BME280;68529;43.286;23.360;2023-11-19T00:11:55;99319.84;;;8.23;49.26
79129;BME280;68529;43.286;23.360;2023-11-19T00:14:21;99312.94;;;8.18;49.58
79129;BME280;68529;43.286;23.360;2023-11-19T00:16:46;99332.13;;;8.19;49.70
79129;BME280;68529;43.286;23.360;2023-11-19T00:19:11;99337.41;;;8.17;49.38
79129;BME280;68529;43.286;23.360;2023-11-19T00:21:37;99324.19;;;8.22;49.29
79129;BME280;68529;43.286;23.360;2023-11-19T00:24:02;99331.16;;;8.23;49.11
79129;BME280;68529;43.286;23.360;2023-11-19T00:26:29;99333.00;;;8.18;49.78
79129;BME280;68529;43.286;23.360;2023-11-19T00:28:55;99346.00;;;8.23;49.15
79129;BME280;68529;43.286;23.360;2023-11-19T00:31:21;99350.44;;;8.19;49.04
79129;BME280;68529;43.286;23.360;2023-11-19T00:33:47;99342.50;;;8.22;49.37
79129;BME280;68529;43.286;23.360;2023-11-19T00:36:12;99342.56;;;8.20;49.21
79129;BME280;68529;43.286;23.360;2023-11-19T00:38:38;99348.53;;;8.27;49.61
79129;BME280;68529;43.286;23.360;2023-11-19T00:41:03;99341.50;;;8.29;49.50
79129;BME280;68529;43.286;23.360;2023-11-19T00:43:29;99337.22;;;8.25;49.04
79129;BME280;68529;43.286;23.360;2023-11-19T00:45:54;99345.94;;;8.26;49.26
79129;BME280;68529;43.286;23.360;2023-11-19T00:48:20;99352.19;;;8.18;49.35
79129;BME280;68529;43.286;23.360;2023-11-19T00:50:45;99350.41;;;8.20;49.74
79129;BME280;68529;43.286;23.360;2023-11-19T00:53:11;99362.56;;;8.23;49.22
79129;BME280;68529;43.286;23.360;2023-11-19T00:55:37;99365.19;;;8.21;49.74
79129;BME280;68529;43.286;23.360;2023-11-19T00:58:02;99356.59;;;8.16;49.05
79129;BME280;68529;43.286;23.360;2023-11-19T01:00:28;99351.53;;;8.09;49.21
79129;BME280;68529;43.286;23.360;2023-11-19T01:02:53;99361.16;;;8.08;49.56
79129;BME280;68529;43.286;23.360;2023-11-19T01:05:20;99354.22;;;8.06;48.90
79129;BME280;68529;43.286;23.360;2023-11-19T01:07:49;99349.88;;;8.06;49.17
79129;BME280;68529;43.286;23.360;2023-11-19T01:10:15;99352.88;;;7.88;48.71
79129;BME280;68529;43.286;23.360;2023-11-19T01:12:44;99339.81;;;7.88;48.97
79129;BME280;68529;43.286;23.360;2023-11-19T01:15:09;99343.41;;;7.84;49.00
79129;BME280;68529;43.286;23.360;2023-11-19T01:17:36;99347.78;;;7.82;49.12
79129;BME280;68529;43.286;23.360;2023-11-19T01:20:02;99350.19;;;7.91;49.23
79129;BME280;68529;43.286;23.360;2023-11-19T01:22:31;99345.69;;;7.98;49.38
79129;BME280;68529;43.286;23.360;2023-11-19T01:24:56;99343.84;;;8.03;49.47
79129;BME280;68529;43.286;23.360;2023-11-19T01:27:23;99343.84;;;8.01;49.07
79129;BME280;68529;43.286;23.360;2023-11-19T01:29:49;99344.03;;;7.95;49.32
79129;BME280;68529;43.286;23.360;2023-11-19T01:32:14;99341.53;;;7.88;49.11
79129;BME280;68529;43.286;23.360;2023-11-19T01:34:40;99351.06;;;7.92;49.19
79129;BME280;68529;43.286;23.360;2023-11-19T01:37:06;99346.00;;;7.84;49.38
79129;BME280;68529;43.286;23.360;2023-11-19T01:39:31;99348.69;;;7.80;49.32
79129;BME280;68529;43.286;23.360;2023-11-19T01:41:57;99340.91;;;7.78;49.62
79129;BME280;68529;43.286;23.360;2023-11-19T01:44:22;99336.50;;;7.80;49.73
79129;BME280;68529;43.286;23.360;2023-11-19T01:46:48;99338.22;;;7.81;49.65
79129;BME280;68529;43.286;23.360;2023-11-19T01:49:17;99335.81;;;7.72;49.29
79129;BME280;68529;43.286;23.360;2023-11-19T01:51:45;99333.31;;;7.66;49.25
79129;BME280;68529;43.286;23.360;2023-11-19T01:54:12;99335.16;;;7.61;49.35
79129;BME280;68529;43.286;23.360;2023-11-19T01:56:39;99327.34;;;7.59;49.16
79129;BME280;68529;43.286;23.360;2023-11-19T01:59:09;99318.66;;;7.59;49.23
79129;BME280;68529;43.286;23.360;2023-11-19T02:01:36;99305.59;;;7.59;49.24
79129;BME280;68529;43.286;23.360;2023-11-19T02:04:06;99302.13;;;7.57;49.26
79129;BME280;68529;43.286;23.360;2023-11-19T02:06:33;99305.59;;;7.59;49.37
79129;BME280;68529;43.286;23.360;2023-11-19T02:08:59;99304.69;;;7.60;49.60
79129;BME280;68529;43.286;23.360;2023-11-19T02:11:25;99306.47;;;7.58;49.22
79129;BME280;68529;43.286;23.360;2023-11-19T02:13:55;99304.88;;;7.51;49.13
79129;BME280;68529;43.286;23.360;2023-11-19T02:16:21;99315.31;;;7.51;49.16
79129;BME280;68529;43.286;23.360;2023-11-19T02:18:46;99317.16;;;7.47;49.33
79129;BME280;68529;43.286;23.360;2023-11-19T02:21:12;99316.25;;;7.50;49.28
79129;BME280;68529;43.286;23.360;2023-11-19T02:23:40;99316.19;;;7.51;48.75
79129;BME280;68529;43.286;23.360;2023-11-19T02:26:19;99317.19;;;7.46;49.38
79129;BME280;68529;43.286;23.360;2023-11-19T02:28:48;99309.41;;;7.43;49.45
79129;BME280;68529;43.286;23.360;2023-11-19T02:31:15;99304.22;;;7.41;49.44
79129;BME280;68529;43.286;23.360;2023-11-19T02:33:40;99307.75;;;7.39;48.97
79129;BME280;68529;43.286;23.360;2023-11-19T02:36:07;99310.44;;;7.36;49.52
79129;BME280;68529;43.286;23.360;2023-11-19T02:38:33;99309.56;;;7.37;49.66
79129;BME280;68529;43.286;23.360;2023-11-19T02:41:00;99310.38;;;7.37;49.69
79129;BME280;68529;43.286;23.360;2023-11-19T02:43:30;99310.34;;;7.40;49.98
79129;BME280;68529;43.286;23.360;2023-11-19T02:45:57;99309.44;;;7.41;49.54
79129;BME280;68529;43.286;23.360;2023-11-19T02:48:22;99307.78;;;7.37;49.33
79129;BME280;68529;43.286;23.360;2023-11-19T02:50:48;99313.13;;;7.33;49.72
79129;BME280;68529;43.286;23.360;2023-11-19T02:53:13;99318.41;;;7.30;49.46
79129;BME280;68529;43.286;23.360;2023-11-19T02:55:39;99319.31;;;7.27;49.31
79129;BME280;68529;43.286;23.360;2023-11-19T02:58:06;99326.34;;;7.24;49.36
79129;BME280;68529;43.286;23.360;2023-11-19T03:00:45;99330.75;;;7.22;49.69
79129;BME280;68529;43.286;23.360;2023-11-19T03:03:17;99335.91;;;7.25;49.96
79129;BME280;68529;43.286;23.360;2023-11-19T03:05:48;99347.19;;;7.27;49.92
79129;BME280;68529;43.286;23.360;2023-11-19T03:08:16;99337.66;;;7.24;49.06
79129;BME280;68529;43.286;23.360;2023-11-19T03:10:42;99329.13;;;7.15;49.58
79129;BME280;68529;43.286;23.360;2023-11-19T03:13:12;99328.31;;;7.13;49.65
79129;BME280;68529;43.286;23.360;2023-11-19T03:15:41;99338.81;;;7.10;49.66
79129;BME280;68529;43.286;23.360;2023-11-19T03:18:07;99335.22;;;7.15;50.10
79129;BME280;68529;43.286;23.360;2023-11-19T03:20:32;99331.69;;;7.18;49.77
79129;BME280;68529;43.286;23.360;2023-11-19T03:22:57;99332.53;;;7.20;49.62
79129;BME280;68529;43.286;23.360;2023-11-19T03:25:26;99331.69;;;7.18;49.43
79129;BME280;68529;43.286;23.360;2023-11-19T03:28:02;99335.25;;;7.14;50.04
79129;BME280;68529;43.286;23.360;2023-11-19T03:30:28;99340.56;;;7.09;50.09
79129;BME280;68529;43.286;23.360;2023-11-19T03:32:57;99333.53;;;7.14;49.91
79129;BME280;68529;43.286;23.360;2023-11-19T03:35:23;99344.81;;;7.15;50.03
79129;BME280;68529;43.286;23.360;2023-11-19T03:37:49;99340.69;;;7.03;50.12
79129;BME280;68529;43.286;23.360;2023-11-19T03:40:15;99341.78;;;6.91;49.76
79129;BME280;68529;43.286;23.360;2023-11-19T03:42:40;99348.75;;;6.91;50.01
79129;BME280;68529;43.286;23.360;2023-11-19T03:45:07;99359.28;;;6.86;49.86
79129;BME280;68529;43.286;23.360;2023-11-19T03:47:35;99364.56;;;6.82;50.14
79129;BME280;68529;43.286;23.360;2023-11-19T03:50:01;99363.69;;;6.83;50.36
79129;BME280;68529;43.286;23.360;2023-11-19T03:52:28;99359.22;;;6.89;49.76
79129;BME280;68529;43.286;23.360;2023-11-19T03:54:54;99354.00;;;6.89;50.11
79129;BME280;68529;43.286;23.360;2023-11-19T03:57:20;99353.16;;;6.87;49.51
79129;BME280;68529;43.286;23.360;2023-11-19T03:59:46;99344.44;;;6.88;49.65
79129;BME280;68529;43.286;23.360;2023-11-19T04:02:12;99341.72;;;6.94;50.14
79129;BME280;68529;43.286;23.360;2023-11-19T04:04:37;99348.69;;;6.92;49.99
79129;BME280;68529;43.286;23.360;2023-11-19T04:07:04;99342.59;;;6.93;50.03
79129;BME280;68529;43.286;23.360;2023-11-19T04:09:31;99347.88;;;6.92;49.96
79129;BME280;68529;43.286;23.360;2023-11-19T04:11:58;99352.16;;;6.94;49.56
79129;BME280;68529;43.286;23.360;2023-11-19T04:14:24;99343.38;;;6.98;49.78
79129;BME280;68529;43.286;23.360;2023-11-19T04:16:49;99343.31;;;7.01;49.58
79129;BME280;68529;43.286;23.360;2023-11-19T04:19:16;99336.34;;;7.02;50.11
79129;BME280;68529;43.286;23.360;2023-11-19T04:21:41;99331.09;;;7.03;49.64
79129;BME280;68529;43.286;23.360;2023-11-19T04:24:10;99344.16;;;7.03;50.02
79129;BME280;68529;43.286;23.360;2023-11-19T04:26:45;99343.22;;;7.08;50.07
79129;BME280;68529;43.286;23.360;2023-11-19T04:29:15;99340.72;;;7.01;49.43
79129;BME280;68529;43.286;23.360;2023-11-19T04:31:42;99348.59;;;6.98;49.51
79129;BME280;68529;43.286;23.360;2023-11-19T04:34:08;99346.91;;;6.97;49.77
79129;BME280;68529;43.286;23.360;2023-11-19T04:36:34;99350.22;;;7.04;49.45
79129;BME280;68529;43.286;23.360;2023-11-19T04:39:00;99353.72;;;7.04;49.78
79129;BME280;68529;43.286;23.360;2023-11-19T04:41:26;99346.75;;;7.03;49.56
79129;BME280;68529;43.286;23.360;2023-11-19T04:43:53;99345.97;;;7.00;49.13
79129;BME280;68529;43.286;23.360;2023-11-19T04:46:19;99342.50;;;6.99;49.61
79129;BME280;68529;43.286;23.360;2023-11-19T04:48:44;99344.28;;;6.96;49.34
79129;BME280;68529;43.286;23.360;2023-11-19T04:51:10;99355.50;;;7.02;49.54
79129;BME280;68529;43.286;23.360;2023-11-19T04:53:35;99349.50;;;6.97;49.31
79129;BME280;68529;43.286;23.360;2023-11-19T04:56:01;99362.56;;;6.97;49.21
79129;BME280;68529;43.286;23.360;2023-11-19T04:58:28;99360.88;;;6.93;48.62
79129;BME280;68529;43.286;23.360;2023-11-19T05:00:54;99352.28;;;6.88;49.37
79129;BME280;68529;43.286;23.360;2023-11-19T05:03:19;99341.84;;;6.88;49.34
79129;BME280;68529;43.286;23.360;2023-11-19T05:05:45;99341.84;;;6.88;49.39
79129;BME280;68529;43.286;23.360;2023-11-19T05:08:10;99335.75;;;6.89;49.22
79129;BME280;68529;43.286;23.360;2023-11-19T05:10:36;99330.38;;;6.95;49.23
79129;BME280;68529;43.286;23.360;2023-11-19T05:13:02;99338.16;;;6.98;49.11
79129;BME280;68529;43.286;23.360;2023-11-19T05:15:27;99336.34;;;7.02;49.27
79129;BME280;68529;43.286;23.360;2023-11-19T05:17:53;99345.88;;;7.04;49.44
79129;BME280;68529;43.286;23.360;2023-11-19T05:20:18;99341.53;;;7.03;49.33
79129;BME280;68529;43.286;23.360;2023-11-19T05:22:43;99341.56;;;7.02;49.38
79129;BME280;68529;43.286;23.360;2023-11-19T05:25:09;99332.09;;;6.96;49.26
79129;BME280;68529;43.286;23.360;2023-11-19T05:27:36;99331.19;;;6.99;48.89
79129;BME280;68529;43.286;23.360;2023-11-19T05:30:03;99338.09;;;7.03;49.67
79129;BME280;68529;43.286;23.360;2023-11-19T05:32:28;99347.56;;;7.09;49.09
79129;BME280;68529;43.286;23.360;2023-11-19T05:34:54;99348.44;;;7.08;49.36
79129;BME280;68529;43.286;23.360;2023-11-19T05:37:19;99343.47;;;6.92;49.61
79129;BME280;68529;43.286;23.360;2023-11-19T05:39:45;99351.59;;;6.77;49.77
79129;BME280;68529;43.286;23.360;2023-11-19T05:42:10;99351.78;;;6.67;49.93
79129;BME280;68529;43.286;23.360;2023-11-19T05:44:35;99359.00;;;6.53;50.25
79129;BME280;68529;43.286;23.360;2023-11-19T05:47:02;99369.59;;;6.42;50.67
79129;BME280;68529;43.286;23.360;2023-11-19T05:49:27;99377.44;;;6.42;50.76
79129;BME280;68529;43.286;23.360;2023-11-19T05:51:52;99379.41;;;6.26;51.37
79129;BME280;68529;43.286;23.360;2023-11-19T05:54:20;99376.00;;;6.21;51.57
79129;BME280;68529;43.286;23.360;2023-11-19T05:56:49;99379.72;;;6.05;51.20
79129;BME280;68529;43.286;23.360;2023-11-19T05:59:15;99380.91;;;5.78;51.91
79129;BME280;68529;43.286;23.360;2023-11-19T06:01:46;99376.56;;;5.80;52.55
79129;BME280;68529;43.286;23.360;2023-11-19T06:04:11;99369.56;;;5.81;52.69
79129;BME280;68529;43.286;23.360;2023-11-19T06:06:37;99364.38;;;5.81;52.75
79129;BME280;68529;43.286;23.360;2023-11-19T06:09:03;99365.28;;;5.80;53.03
79129;BME280;68529;43.286;23.360;2023-11-19T06:11:29;99354.75;;;5.84;52.82
79129;BME280;68529;43.286;23.360;2023-11-19T06:13:55;99353.22;;;5.71;52.58
79129;BME280;68529;43.286;23.360;2023-11-19T06:16:21;99368.94;;;5.65;52.90
79129;BME280;68529;43.286;23.360;2023-11-19T06:18:46;99374.22;;;5.59;53.22
79129;BME280;68529;43.286;23.360;2023-11-19T06:21:12;99365.53;;;5.59;53.58
79129;BME280;68529;43.286;23.360;2023-11-19T06:23:38;99362.94;;;5.57;53.07
79129;BME280;68529;43.286;23.360;2023-11-19T06:26:04;99372.56;;;5.51;53.08
79129;BME280;68529;43.286;23.360;2023-11-19T06:28:30;99370.88;;;5.50;53.54
79129;BME280;68529;43.286;23.360;2023-11-19T06:30:56;99371.16;;;5.96;53.34
79129;BME280;68529;43.286;23.360;2023-11-19T06:33:23;99378.56;;;6.23;52.92
79129;BME280;68529;43.286;23.360;2023-11-19T06:35:48;99397.97;;;6.62;52.65
79129;BME280;68529;43.286;23.360;2023-11-19T06:38:14;99391.13;;;7.05;51.89
79129;BME280;68529;43.286;23.360;2023-11-19T06:40:40;99385.06;;;7.49;51.19
79129;BME280;68529;43.286;23.360;2023-11-19T06:43:06;99390.66;;;7.74;50.64
79129;BME280;68529;43.286;23.360;2023-11-19T06:45:33;99382.31;;;7.98;50.11
79129;BME280;68529;43.286;23.360;2023-11-19T06:48:03;99374.72;;;8.24;49.39
79129;BME280;68529;43.286;23.360;2023-11-19T06:50:30;99371.72;;;8.42;49.53
79129;BME280;68529;43.286;23.360;2023-11-19T06:52:55;99359.50;;;8.43;48.39
79129;BME280;68529;43.286;23.360;2023-11-19T06:55:21;99377.56;;;8.15;49.10
79129;BME280;68529;43.286;23.360;2023-11-19T06:57:46;99377.31;;;8.27;49.16
79129;BME280;68529;43.286;23.360;2023-11-19T07:00:12;99375.03;;;8.49;48.25
79129;BME280;68529;43.286;23.360;2023-11-19T07:02:37;99385.22;;;8.61;48.04
79129;BME280;68529;43.286;23.360;2023-11-19T07:05:03;99375.47;;;8.67;47.88
79129;BME280;68529;43.286;23.360;2023-11-19T07:07:31;99381.25;;;8.82;47.71
79129;BME280;68529;43.286;23.360;2023-11-19T07:09:57;99375.47;;;8.67;47.63
79129;BME280;68529;43.286;23.360;2023-11-19T07:12:22;99394.16;;;8.12;48.78
79129;BME280;68529;43.286;23.360;2023-11-19T07:14:47;99390.81;;;8.07;49.65
79129;BME280;68529;43.286;23.360;2023-11-19T07:17:13;99396.72;;;8.15;49.61
79129;BME280;68529;43.286;23.360;2023-11-19T07:19:38;99398.00;;;8.38;49.56
79129;BME280;68529;43.286;23.360;2023-11-19T07:22:04;99405.81;;;8.76;48.77
79129;BME280;68529;43.286;23.360;2023-11-19T07:24:31;99397.84;;;8.81;48.46
79129;BME280;68529;43.286;23.360;2023-11-19T07:26:56;99404.16;;;9.40;48.14
79129;BME280;68529;43.286;23.360;2023-11-19T07:29:22;99399.16;;;9.92;47.48
79129;BME280;68529;43.286;23.360;2023-11-19T07:31:51;99405.94;;;10.30;45.77
79129;BME280;68529;43.286;23.360;2023-11-19T07:34:16;99407.06;;;10.49;45.31
79129;BME280;68529;43.286;23.360;2023-11-19T07:36:42;99404.78;;;10.66;43.30
79129;BME280;68529;43.286;23.360;2023-11-19T07:39:07;99403.41;;;10.81;43.10
79129;BME280;68529;43.286;23.360;2023-11-19T07:41:33;99410.59;;;11.02;43.66
79129;BME280;68529;43.286;23.360;2023-11-19T07:44:00;99388.78;;;11.25;43.13
79129;BME280;68529;43.286;23.360;2023-11-19T07:46:25;99399.91;;;11.56;41.87
79129;BME280;68529;43.286;23.360;2023-11-19T07:48:52;99397.75;;;11.67;41.54
79129;BME280;68529;43.286;23.360;2023-11-19T07:51:17;99400.72;;;11.58;39.97
79129;BME280;68529;43.286;23.360;2023-11-19T07:53:43;99394.88;;;11.75;40.43
79129;BME280;68529;43.286;23.360;2023-11-19T07:56:09;99391.09;;;12.28;40.74
79129;BME280;68529;43.286;23.360;2023-11-19T07:58:34;99389.63;;;12.64;39.66
79129;BME280;68529;43.286;23.360;2023-11-19T08:01:00;99384.38;;;12.64;38.56
79129;BME280;68529;43.286;23.360;2023-11-19T08:03:27;99386.91;;;12.88;38.85
79129;BME280;68529;43.286;23.360;2023-11-19T08:05:56;99381.44;;;12.50;37.60
79129;BME280;68529;43.286;23.360;2023-11-19T08:08:24;99388.50;;;12.48;38.30
79129;BME280;68529;43.286;23.360;2023-11-19T08:10:50;99393.78;;;12.92;37.96
79129;BME280;68529;43.286;23.360;2023-11-19T08:13:17;99390.72;;;13.22;38.52
79129;BME280;68529;43.286;23.360;2023-11-19T08:15:43;99385.78;;;13.55;38.62
79129;BME280;68529;43.286;23.360;2023-11-19T08:18:08;99389.81;;;13.82;38.53
79129;BME280;68529;43.286;23.360;2023-11-19T08:20:34;99379.41;;;13.98;37.99
79129;BME280;68529;43.286;23.360;2023-11-19T08:22:59;99391.06;;;14.31;37.46
79129;BME280;68529;43.286;23.360;2023-11-19T08:25:25;99394.81;;;14.46;37.21
79129;BME280;68529;43.286;23.360;2023-11-19T08:27:50;99404.34;;;14.67;37.01
79129;BME280;68529;43.286;23.360;2023-11-19T08:30:16;99405.09;;;14.88;36.42
79129;BME280;68529;43.286;23.360;2023-11-19T08:32:41;99398.41;;;14.98;36.77
79129;BME280;68529;43.286;23.360;2023-11-19T08:35:07;99392.88;;;15.20;36.31
79129;BME280;68529;43.286;23.360;2023-11-19T08:37:32;99400.50;;;15.26;36.18
79129;BME280;68529;43.286;23.360;2023-11-19T08:39:58;99402.34;;;14.89;35.48
79129;BME280;68529;43.286;23.360;2023-11-19T08:42:24;99403.44;;;15.02;35.64
79129;BME280;68529;43.286;23.360;2023-11-19T08:44:50;99384.16;;;15.18;34.89
79129;BME280;68529;43.286;23.360;2023-11-19T08:47:16;99376.28;;;15.16;34.81
79129;BME280;68529;43.286;23.360;2023-11-19T08:49:43;99373.03;;;15.28;35.08
79129;BME280;68529;43.286;23.360;2023-11-19T08:52:09;99372.63;;;15.53;34.89
79129;BME280;68529;43.286;23.360;2023-11-19T08:54:36;99366.75;;;15.81;34.44
79129;BME280;68529;43.286;23.360;2023-11-19T08:57:01;99363.38;;;16.10;33.89
79129;BME280;68529;43.286;23.360;2023-11-19T08:59:28;99360.66;;;16.27;33.85
79129;BME280;68529;43.286;23.360;2023-11-19T09:01:53;99360.91;;;16.22;33.44
79129;BME280;68529;43.286;23.360;2023-11-19T09:04:19;99370.81;;;16.35;33.69
79129;BME280;68529;43.286;23.360;2023-11-19T09:06:47;99374.50;;;16.32;33.02
79129;BME280;68529;43.286;23.360;2023-11-19T09:09:12;99381.84;;;16.43;33.40
79129;BME280;68529;43.286;23.360;2023-11-19T09:11:38;99379.50;;;16.54;33.40
79129;BME280;68529;43.286;23.360;2023-11-19T09:14:03;99377.50;;;16.73;32.63
79129;BME280;68529;43.286;23.360;2023-11-19T09:16:29;99374.72;;;16.60;32.49
79129;BME280;68529;43.286;23.360;2023-11-19T09:18:55;99379.97;;;16.76;32.64
79129;BME280;68529;43.286;23.360;2023-11-19T09:21:20;99379.00;;;16.93;32.36
79129;BME280;68529;43.286;23.360;2023-11-19T09:23:45;99369.75;;;17.00;32.64
79129;BME280;68529;43.286;23.360;2023-11-19T09:26:13;99361.56;;;17.18;32.40
79129;BME280;68529;43.286;23.360;2023-11-19T09:28:38;99353.66;;;17.46;32.15
79129;BME280;68529;43.286;23.360;2023-11-19T09:31:16;99349.44;;;17.58;31.75
79129;BME280;68529;43.286;23.360;2023-11-19T09:33:41;99349.09;;;17.48;31.99
79129;BME280;68529;43.286;23.360;2023-11-19T09:36:07;99345.69;;;17.46;31.83
79129;BME280;68529;43.286;23.360;2023-11-19T09:38:33;99327.31;;;17.58;31.69
79129;BME280;68529;43.286;23.360;2023-11-19T09:40:59;99331.25;;;17.51;31.64
79129;BME280;68529;43.286;23.360;2023-11-19T09:43:33;99333.84;;;17.52;31.40
79129;BME280;68529;43.286;23.360;2023-11-19T09:46:04;99329.97;;;17.72;30.91
79129;BME280;68529;43.286;23.360;2023-11-19T09:48:33;99322.94;;;17.85;30.96
79129;BME280;68529;43.286;23.360;2023-11-19T09:51:00;99324.66;;;18.00;30.47
79129;BME280;68529;43.286;23.360;2023-11-19T09:53:26;99321.19;;;18.12;30.16
79129;BME280;68529;43.286;23.360;2023-11-19T09:55:52;99310.56;;;18.12;30.07
79129;BME280;68529;43.286;23.360;2023-11-19T09:58:18;99315.50;;;18.04;30.17
79129;BME280;68529;43.286;23.360;2023-11-19T10:00:43;99317.44;;;18.02;30.04
79129;BME280;68529;43.286;23.360;2023-11-19T10:03:10;99314.44;;;18.21;30.21
79129;BME280;68529;43.286;23.360;2023-11-19T10:05:37;99312.63;;;18.21;30.42
79129;BME280;68529;43.286;23.360;2023-11-19T10:08:04;99310.50;;;18.40;29.73
79129;BME280;68529;43.286;23.360;2023-11-19T10:10:31;99305.16;;;18.40;29.94
79129;BME280;68529;43.286;23.360;2023-11-19T10:12:56;99294.50;;;18.54;30.26
79129;BME280;68529;43.286;23.360;2023-11-19T10:15:23;99287.72;;;18.63;29.39
79129;BME280;68529;43.286;23.360;2023-11-19T10:17:58;99301.03;;;18.63;29.73
79129;BME280;68529;43.286;23.360;2023-11-19T10:20:23;99289.53;;;18.63;29.07
79129;BME280;68529;43.286;23.360;2023-11-19T10:22:55;99277.09;;;18.63;28.67
79129;BME280;68529;43.286;23.360;2023-11-19T10:25:25;99279.22;;;18.71;28.84
79129;BME280;68529;43.286;23.360;2023-11-19T10:27:51;99286.59;;;18.80;28.71
79129;BME280;68529;43.286;23.360;2023-11-19T10:30:28;99281.34;;;18.66;29.40
79129;BME280;68529;43.286;23.360;2023-11-19T10:33:13;99291.72;;;18.70;28.78
79129;BME280;68529;43.286;23.360;2023-11-19T10:35:53;99287.06;;;18.59;29.57
79129;BME280;68529;43.286;23.360;2023-11-19T10:38:19;99288.19;;;18.70;29.11
79129;BME280;68529;43.286;23.360;2023-11-19T10:40:44;99285.00;;;18.77;28.59
79129;BME280;68529;43.286;23.360;2023-11-19T10:43:10;99276.81;;;18.93;28.75
79129;BME280;68529;43.286;23.360;2023-11-19T10:45:37;99266.09;;;18.94;28.53
79129;BME280;68529;43.286;23.360;2023-11-19T10:48:04;99268.44;;;18.99;27.88
79129;BME280;68529;43.286;23.360;2023-11-19T10:50:33;99254.81;;;19.03;27.74
79129;BME280;68529;43.286;23.360;2023-11-19T10:52:59;99258.88;;;19.09;28.22
79129;BME280;68529;43.286;23.360;2023-11-19T10:55:29;99259.34;;;18.76;28.22
79129;BME280;68529;43.286;23.360;2023-11-19T10:57:59;99252.34;;;18.88;28.29
79129;BME280;68529;43.286;23.360;2023-11-19T11:00:27;99250.84;;;18.96;27.83
79129;BME280;68529;43.286;23.360;2023-11-19T11:02:55;99241.81;;;18.99;27.58
79129;BME280;68529;43.286;23.360;2023-11-19T11:05:26;99243.84;;;18.95;27.97
79129;BME280;68529;43.286;23.360;2023-11-19T11:07:52;99239.91;;;19.13;27.47
79129;BME280;68529;43.286;23.360;2023-11-19T11:10:21;99234.25;;;19.18;27.76
79129;BME280;68529;43.286;23.360;2023-11-19T11:12:48;99240.00;;;19.25;27.50
79129;BME280;68529;43.286;23.360;2023-11-19T11:15:18;99250.47;;;19.40;27.28
79129;BME280;68529;43.286;23.360;2023-11-19T11:17:44;99251.44;;;19.39;27.29
79129;BME280;68529;43.286;23.360;2023-11-19T11:20:12;99243.50;;;19.38;27.24
79129;BME280;68529;43.286;23.360;2023-11-19T11:28:26;99224.13;;;19.36;27.05
79129;BME280;68529;43.286;23.360;2023-11-19T11:43:43;99224.34;;;19.07;27.13
79129;BME280;68529;43.286;23.360;2023-11-19T11:46:09;99218.06;;;18.96;27.48
79129;BME280;68529;43.286;23.360;2023-11-19T11:48:34;99219.13;;;18.93;27.64
79129;BME280;68529;43.286;23.360;2023-11-19T11:51:00;99209.44;;;18.92;27.35
79129;BME280;68529;43.286;23.360;2023-11-19T11:53:25;99206.66;;;18.94;27.32
79129;BME280;68529;43.286;23.360;2023-11-19T11:55:53;99189.00;;;18.80;27.39
79129;BME280;68529;43.286;23.360;2023-11-19T11:58:25;99182.81;;;18.80;26.93
79129;BME280;68529;43.286;23.360;2023-11-19T12:00:51;99184.72;;;18.78;26.92
79129;BME280;68529;43.286;23.360;2023-11-19T12:03:20;99174.63;;;18.70;27.57
79129;BME280;68529;43.286;23.360;2023-11-19T12:05:47;99172.38;;;18.64;28.21
79129;BME280;68529;43.286;23.360;2023-11-19T12:08:14;99166.41;;;18.48;27.80
79129;BME280;68529;43.286;23.360;2023-11-19T12:10:51;99173.84;;;18.55;27.67
79129;BME280;68529;43.286;23.360;2023-11-19T12:13:18;99166.28;;;18.49;27.89
79129;BME280;68529;43.286;23.360;2023-11-19T12:18:30;99165.06;;;18.28;27.57
79129;BME280;68529;43.286;23.360;2023-11-19T12:20:56;99161.16;;;18.07;28.02
79129;BME280;68529;43.286;23.360;2023-11-19T12:23:22;99159.66;;;18.03;27.90
79129;BME280;68529;43.286;23.360;2023-11-19T12:25:48;99162.72;;;17.97;27.88
79129;BME280;68529;43.286;23.360;2023-11-19T12:28:14;99165.97;;;17.88;28.28
79129;BME280;68529;43.286;23.360;2023-11-19T12:30:42;99168.59;;;17.75;27.96
79129;BME280;68529;43.286;23.360;2023-11-19T12:33:09;99172.31;;;17.59;28.34
79129;BME280;68529;43.286;23.360;2023-11-19T12:35:45;99178.84;;;17.53;28.47
79129;BME280;68529;43.286;23.360;2023-11-19T12:38:25;99179.44;;;17.58;28.63
79129;BME280;68529;43.286;23.360;2023-11-19T12:41:06;99191.66;;;17.61;28.63
79129;BME280;68529;43.286;23.360;2023-11-19T12:43:32;99179.22;;;17.47;28.70
79129;BME280;68529;43.286;23.360;2023-11-19T12:46:00;99183.22;;;17.26;28.86
79129;BME280;68529;43.286;23.360;2023-11-19T12:48:25;99182.47;;;17.10;29.32
79129;BME280;68529;43.286;23.360;2023-11-19T12:53:17;99173.84;;;17.06;29.26
79129;BME280;68529;43.286;23.360;2023-11-19T12:55:42;99166.66;;;16.94;29.72
79129;BME280;68529;43.286;23.360;2023-11-19T12:58:07;99175.16;;;16.71;29.42
79129;BME280;68529;43.286;23.360;2023-11-19T13:00:33;99174.19;;;16.58;29.72
79129;BME280;68529;43.286;23.360;2023-11-19T13:02:58;99174.38;;;16.55;29.65
79129;BME280;68529;43.286;23.360;2023-11-19T13:05:33;99169.00;;;16.41;30.04
79129;BME280;68529;43.286;23.360;2023-11-19T13:08:03;99156.63;;;16.25;30.08
79129;BME280;68529;43.286;23.360;2023-11-19T13:10:30;99163.09;;;16.06;30.17
79129;BME280;68529;43.286;23.360;2023-11-19T13:13:03;99169.88;;;15.80;30.62
79129;BME280;68529;43.286;23.360;2023-11-19T13:15:29;99175.03;;;15.52;30.54
79129;BME280;68529;43.286;23.360;2023-11-19T13:17:55;99169.19;;;15.30;31.06